Time;durP1;ratioP1;P1;durP2;ratioP2;P2;SDS_P1;SDS_P2;PMS_P1;PMS_P2;Temp;Humidity;BMP_temperature;BMP_pressure;BME280_temperature;BME280_humidity;BME280_pressure;Samples;Min_cycle;Max_cycle;Signal;HPM_P1;HPM_P2
2021/03/14 00:02:23;;;;;;;7.40;1.97;;;;;;;6.89;100.00;100537.95;1858907;76;934633;-75
2021/03/14 00:04:53;;;;;;;8.53;1.80;;;;;;;6.97;100.00;100546.55;1814149;77;934665;-75
2021/03/14 00:07:23;;;;;;;7.17;1.50;;;;;;;6.91;100.00;100533.81;1859203;76;934431;-74
2021/03/14 00:09:53;;;;;;;12.20;3.40;;;;;;;6.90;100.00;100543.73;1847001;76;934728;-74
2021/03/14 00:12:22;;;;;;;8.00;2.43;;;;;;;6.80;100.00;100545.33;1826230;77;936680;-74
2021/03/14 00:14:52;;;;;;;6.30;2.30;;;;;;;6.80;100.00;100555.57;1814574;77;934682;-75
2021/03/14 00:17:22;;;;;;;8.27;2.10;;;;;;;6.88;100.00;100568.03;1859113;76;934400;-74
2021/03/14 00:19:52;;;;;;;8.93;2.60;;;;;;;6.91;100.00;100575.22;1814528;77;934889;-76
2021/03/14 00:22:22;;;;;;;7.13;2.27;;;;;;;6.89;100.00;100571.08;1859264;76;934734;-74
2021/03/14 00:24:52;;;;;;;11.68;2.47;;;;;;;6.81;100.00;100579.30;1814420;77;934820;-77
2021/03/14 00:27:22;;;;;;;12.65;5.85;;;;;;;6.81;100.00;100580.13;1859246;75;936734;-75
2021/03/14 00:29:52;;;;;;;12.55;2.80;;;;;;;6.78;100.00;100585.36;1849796;76;935398;-76
2021/03/14 00:32:24;;;;;;;8.20;1.73;;;;;;;6.76;100.00;100584.81;1885535;74;936543;-75
2021/03/14 00:34:55;;;;;;;9.43;2.57;;;;;;;6.88;100.00;100606.13;1847040;76;934377;-75
2021/03/14 00:37:25;;;;;;;10.55;2.55;;;;;;;6.83;100.00;100614.38;1826359;77;934524;-75
2021/03/14 00:39:54;;;;;;;7.57;2.60;;;;;;;6.84;100.00;100621.57;1846941;76;936604;-75
2021/03/14 00:42:24;;;;;;;8.40;1.93;;;;;;;6.84;100.00;100629.31;1826362;77;934477;-75
2021/03/14 00:44:54;;;;;;;7.70;2.07;;;;;;;6.85;100.00;100639.77;1814417;77;934360;-75
2021/03/14 00:47:24;;;;;;;6.90;2.47;;;;;;;6.81;100.00;100634.50;1859142;76;934641;-75
2021/03/14 00:49:54;;;;;;;8.23;2.15;;;;;;;6.82;100.00;100637.55;1846816;73;934505;-74
2021/03/14 00:52:24;;;;;;;7.03;2.17;;;;;;;6.86;100.00;100640.90;1826295;77;934710;-75
2021/03/14 00:54:54;;;;;;;10.33;1.80;;;;;;;6.92;100.00;100648.67;1847105;76;934472;-74
2021/03/14 00:57:24;;;;;;;8.13;2.40;;;;;;;6.92;100.00;100652.81;1826239;77;936798;-75
2021/03/14 00:59:55;;;;;;;8.53;2.27;;;;;;;6.91;100.00;100652.53;1814343;77;934557;-75
2021/03/14 01:02:25;;;;;;;7.20;1.97;;;;;;;6.94;100.00;100664.41;1859163;76;934661;-75
2021/03/14 01:04:55;;;;;;;9.50;2.10;;;;;;;6.95;100.00;100667.46;1846822;76;934560;-75
2021/03/14 01:07:25;;;;;;;6.97;2.23;;;;;;;6.86;100.00;100671.81;1826242;77;934499;-75
2021/03/14 01:09:55;;;;;;;12.23;2.00;;;;;;;6.83;100.00;100673.73;1847225;76;934622;-76
2021/03/14 01:12:24;;;;;;;9.33;2.17;;;;;;;6.77;100.00;100675.61;1826356;77;936605;-74
2021/03/14 01:14:54;;;;;;;4.97;1.80;;;;;;;6.81;100.00;100680.05;1847034;76;934538;-76
2021/03/14 01:17:24;;;;;;;6.07;1.93;;;;;;;6.80;100.00;100683.93;1859159;76;934597;-75
2021/03/14 01:19:54;;;;;;;9.28;2.42;;;;;;;6.86;100.00;100688.37;1814431;77;934571;-75
2021/03/14 01:22:23;;;;;;;6.73;1.80;;;;;;;6.89;100.00;100678.17;1859123;76;934556;-75
2021/03/14 01:24:53;;;;;;;10.07;2.50;;;;;;;6.93;100.00;100686.20;1814126;77;934801;-75
2021/03/14 01:27:23;;;;;;;9.70;1.93;;;;;;;6.96;100.00;100686.25;1859012;76;936664;-74
2021/03/14 01:29:54;;;;;;;13.70;2.80;;;;;;;7.02;100.00;100685.16;1846928;76;934941;-75
2021/03/14 01:32:24;;;;;;;12.43;2.60;;;;;;;7.00;100.00;100686.83;1826270;77;936610;-74
2021/03/14 01:34:54;;;;;;;11.23;2.37;;;;;;;7.05;100.00;100679.97;1846665;76;936637;-74
2021/03/14 01:37:24;;;;;;;9.03;1.57;;;;;;;7.07;100.00;100681.06;1859044;76;936671;-74
2021/03/14 01:39:54;;;;;;;9.80;2.53;;;;;;;7.09;100.00;100690.77;1814423;77;934570;-74
2021/03/14 01:42:28;;;;;;;7.97;2.40;;;;;;;7.07;100.00;100693.48;1826477;77;934817;-74
2021/03/14 01:44:58;;;;;;;6.00;1.90;;;;;;;7.08;100.00;100700.69;1847224;76;934446;-74
2021/03/14 01:47:34;;;;;;;9.90;2.13;;;;;;;7.19;100.00;100710.69;1826280;77;934624;-74
2021/03/14 01:50:05;;;;;;;8.18;2.20;;;;;;;7.26;100.00;100716.84;1814540;75;934852;-74
2021/03/14 01:52:36;;;;;;;10.73;2.17;;;;;;;7.32;100.00;100708.30;1826322;77;934575;-75
2021/03/14 01:55:09;;;;;;;8.10;1.70;;;;;;;7.32;100.00;100700.55;1846965;76;936632;-74
2021/03/14 01:57:39;;;;;;;8.03;1.90;;;;;;;7.32;100.00;100708.30;1859121;76;932674;-74
2021/03/14 02:00:13;;;;;;;6.53;1.90;;;;;;;7.46;100.00;100706.44;1814495;77;934496;-75
2021/03/14 02:02:44;;;;;;;9.40;2.87;;;;;;;7.42;100.00;100720.51;1859201;76;932600;-74
2021/03/14 02:05:17;;;;;;;8.73;1.93;;;;;;;7.46;100.00;100716.95;1814251;77;934600;-74
2021/03/14 02:07:50;;;;;;;8.27;2.07;;;;;;;7.51;100.00;100718.91;1826239;77;932601;-73
2021/03/14 02:10:23;;;;;;;15.40;2.87;;;;;;;7.46;100.00;100719.71;1859145;76;934580;-74
2021/03/14 02:12:56;;;;;;;7.20;1.73;;;;;;;7.48;100.00;100728.58;1814252;77;936599;-75
2021/03/14 02:15:28;;;;;;;10.13;1.97;;;;;;;7.48;100.00;100732.72;1859189;76;934490;-74
2021/03/14 02:18:00;;;;;;;6.50;1.72;;;;;;;7.50;100.00;100729.13;1814133;77;936685;-74
2021/03/14 02:20:32;;;;;;;7.97;1.73;;;;;;;7.51;100.00;100736.88;1858995;76;934439;-74
2021/03/14 02:23:28;;;;;;;9.27;1.60;;;;;;;7.51;100.00;100739.63;1847101;76;934424;-74
2021/03/14 02:26:03;;;;;;;7.03;1.70;;;;;;;7.58;100.00;100749.89;1803089;77;934521;-74
2021/03/14 02:28:35;;;;;;;5.87;2.37;;;;;;;7.59;100.00;100751.56;1858832;76;934544;-74
2021/03/14 02:31:06;;;;;;;5.70;2.35;;;;;;;7.61;100.00;100764.58;1847010;76;934501;-75
2021/03/14 02:33:38;;;;;;;7.67;1.90;;;;;;;7.61;100.00;100753.52;1826272;77;934675;-74
2021/03/14 02:36:11;;;;;;;11.40;2.50;;;;;;;7.55;100.00;100762.87;1847078;76;934416;-75
2021/03/14 02:38:43;;;;;;;6.30;1.80;;;;;;;7.54;100.00;100773.64;1826176;77;934722;-75
2021/03/14 02:41:14;;;;;;;6.63;1.83;;;;;;;7.64;100.00;100775.93;1847186;76;934537;-74
2021/03/14 02:43:45;;;;;;;7.30;1.67;;;;;;;7.66;100.00;100780.63;1826172;77;932665;-74
2021/03/14 02:46:16;;;;;;;5.03;1.30;;;;;;;7.70;100.00;100790.05;1846971;76;934692;-74
2021/03/14 02:48:48;;;;;;;8.57;1.87;;;;;;;7.63;100.00;100802.45;1859131;76;932834;-75
2021/03/14 02:51:19;;;;;;;5.47;1.50;;;;;;;7.66;100.00;100816.56;1826411;76;934569;-74
2021/03/14 02:53:49;;;;;;;9.43;1.60;;;;;;;7.72;100.00;100827.11;1826424;77;932731;-74
2021/03/14 02:56:19;;;;;;;5.47;1.67;;;;;;;7.61;100.00;100835.06;1859083;76;934589;-74
2021/03/14 02:58:50;;;;;;;3.60;1.70;;;;;;;7.59;100.00;100843.61;1826221;77;932707;-75
2021/03/14 03:01:21;;;;;;;7.80;1.80;;;;;;;7.55;100.00;100858.23;1826209;77;934474;-75
2021/03/14 03:03:51;;;;;;;4.67;1.67;;;;;;;7.54;100.00;100862.92;1858859;76;932629;-74
2021/03/14 03:06:22;;;;;;;7.07;1.63;;;;;;;7.52;100.00;100865.67;1859000;76;934646;-74
2021/03/14 03:08:53;;;;;;;5.87;1.40;;;;;;;7.48;100.00;100879.20;1815612;77;934592;-77
2021/03/14 03:11:24;;;;;;;7.60;1.77;;;;;;;7.50;100.00;100874.22;1826274;77;934446;-74
2021/03/14 03:13:54;;;;;;;6.93;1.40;;;;;;;7.42;100.00;100882.16;1846750;76;936689;-74
2021/03/14 03:16:26;;;;;;;3.80;1.30;;;;;;;7.32;100.00;100874.07;1859099;76;934457;-74
2021/03/14 03:19:15;;;;;;;3.27;1.43;;;;;;;7.38;100.00;100882.41;1756177;80;934599;-75
2021/03/14 03:21:46;;;;;;;5.27;1.90;;;;;;;7.36;100.00;100886.00;1799141;78;932625;-74
2021/03/14 03:24:16;;;;;;;5.15;1.30;;;;;;;7.32;100.00;100890.64;1786282;78;1002279;-74
2021/03/14 03:26:48;;;;;;;7.70;1.70;;;;;;;7.36;100.00;100895.09;1799133;78;934658;-75
2021/03/14 03:29:19;;;;;;;5.23;1.40;;;;;;;7.33;100.00;100901.16;1799158;78;934955;-74
2021/03/14 03:31:49;;;;;;;7.83;1.50;;;;;;;7.38;100.00;100905.35;1799115;78;932759;-75
2021/03/14 03:34:19;;;;;;;7.47;1.53;;;;;;;7.34;100.00;100905.59;1799380;78;934475;-75
2021/03/14 03:36:49;;;;;;;6.83;1.20;;;;;;;7.42;100.00;100913.40;1799314;78;932742;-75
2021/03/14 03:39:21;;;;;;;7.07;1.43;;;;;;;7.46;100.00;100909.56;1799462;78;934550;-75
2021/03/14 03:41:53;;;;;;;4.40;1.10;;;;;;;7.46;100.00;100914.54;1799137;78;932659;-75
2021/03/14 03:44:26;;;;;;;6.10;1.40;;;;;;;7.40;100.00;100920.30;1798850;78;934422;-74
2021/03/14 03:47:00;;;;;;;3.47;1.22;;;;;;;7.35;100.00;100933.52;1787338;78;934735;-75
2021/03/14 03:49:33;;;;;;;5.63;1.40;;;;;;;7.31;100.00;100931.83;1798943;78;934548;-75
2021/03/14 03:52:04;;;;;;;4.03;1.42;;;;;;;7.20;100.00;100935.58;1839624;75;944455;-74
2021/03/14 03:54:36;;;;;;;5.30;1.20;;;;;;;7.15;100.00;100936.89;1859046;73;934412;-74
2021/03/14 03:57:08;;;;;;;3.98;1.40;;;;;;;7.11;100.00;100944.03;1830649;77;934673;-73
2021/03/14 03:59:38;;;;;;;2.63;0.90;;;;;;;7.12;100.00;100954.00;1858983;75;932612;-73
2021/03/14 04:02:10;;;;;;;4.17;1.10;;;;;;;7.14;100.00;100949.61;1814523;77;934957;-73
2021/03/14 04:04:42;;;;;;;4.50;1.03;;;;;;;7.01;100.00;100960.52;1859148;76;932518;-73
2021/03/14 04:07:13;;;;;;;1.80;1.07;;;;;;;6.96;100.00;100970.12;1847051;76;934439;-73
2021/03/14 04:09:46;;;;;;;5.57;1.67;;;;;;;6.95;100.00;100958.78;1826598;77;932892;-74
2021/03/14 04:12:17;;;;;;;6.53;1.60;;;;;;;6.99;100.00;100964.06;1814382;77;934634;-72
2021/03/14 04:14:48;;;;;;;4.13;1.03;;;;;;;7.03;100.00;100965.22;1826192;77;932578;-72
2021/03/14 04:17:17;;;;;;;4.90;1.03;;;;;;;6.95;100.00;100978.11;1859057;76;934589;-73
2021/03/14 04:19:50;;;;;;;5.13;1.40;;;;;;;6.96;100.00;100990.83;1826231;77;932538;-73
2021/03/14 04:22:20;;;;;;;5.37;1.17;;;;;;;7.04;100.00;100986.77;1859212;76;934419;-73
2021/03/14 04:24:52;;;;;;;3.80;1.47;;;;;;;6.99;100.00;100996.37;1859130;76;932518;-73
2021/03/14 04:27:22;;;;;;;7.17;1.70;;;;;;;6.93;100.00;101006.51;1826378;77;934795;-73
2021/03/14 04:29:54;;;;;;;5.33;1.50;;;;;;;6.99;100.00;101010.18;1847129;76;934615;-74
2021/03/14 04:32:25;;;;;;;5.27;1.20;;;;;;;6.95;100.00;101007.10;1826258;77;934698;-72
2021/03/14 04:34:56;;;;;;;3.95;1.22;;;;;;;6.88;100.00;101016.14;1814427;77;934448;-73
2021/03/14 04:37:26;;;;;;;6.30;1.50;;;;;;;6.86;100.00;101018.30;1826235;77;934543;-73
2021/03/14 04:39:56;;;;;;;6.08;1.90;;;;;;;6.74;100.00;101025.34;1846902;76;934801;-72
2021/03/14 04:42:26;;;;;;;5.43;1.43;;;;;;;6.78;100.00;101040.30;1826284;77;934634;-73
2021/03/14 04:44:58;;;;;;;4.65;1.82;;;;;;;6.75;100.00;101041.36;1814277;77;934409;-73
2021/03/14 04:47:28;;;;;;;5.00;1.30;;;;;;;6.73;100.00;101039.39;1859206;76;933615;-73
2021/03/14 04:49:57;;;;;;;5.58;1.25;;;;;;;6.76;100.00;101038.32;1846857;76;934735;-73
2021/03/14 04:52:28;;;;;;;7.40;1.40;;;;;;;6.70;100.00;101041.28;1826310;77;934587;-73
2021/03/14 04:55:00;;;;;;;7.33;1.80;;;;;;;6.78;100.00;101039.45;1814302;75;934611;-75
2021/03/14 04:57:31;;;;;;;8.17;1.67;;;;;;;6.76;100.00;101041.08;1826325;77;934399;-73
2021/03/14 05:00:03;;;;;;;4.77;1.20;;;;;;;6.69;100.00;101051.48;1846953;76;934439;-73
2021/03/14 05:02:35;;;;;;;5.67;1.30;;;;;;;6.82;100.00;101053.87;1826322;77;934649;-73
2021/03/14 05:05:07;;;;;;;3.12;1.20;;;;;;;6.76;100.00;101074.78;1846913;76;934648;-73
2021/03/14 05:07:38;;;;;;;3.67;1.27;;;;;;;6.73;100.00;101079.41;1826171;77;932777;-73
2021/03/14 05:10:12;;;;;;;3.60;1.30;;;;;;;6.74;100.00;101083.31;1847004;76;934634;-73
2021/03/14 05:12:43;;;;;;;3.20;1.23;;;;;;;6.74;100.00;101090.75;1827766;77;932640;-73
2021/03/14 05:15:15;;;;;;;5.17;1.53;;;;;;;6.74;100.00;101108.16;1830694;77;934598;-73
2021/03/14 05:17:47;;;;;;;4.47;1.13;;;;;;;6.67;100.00;101112.19;1859093;75;932771;-74
2021/03/14 05:20:19;;;;;;;2.17;1.10;;;;;;;6.70;100.00;101116.66;1842756;77;934493;-73
2021/03/14 05:22:51;;;;;;;4.70;1.10;;;;;;;6.68;100.00;101128.48;1859084;75;932849;-73
2021/03/14 05:25:22;;;;;;;4.37;1.20;;;;;;;6.63;100.00;101134.48;1842759;77;934576;-73
2021/03/14 05:27:54;;;;;;;3.17;0.80;;;;;;;6.63;100.00;101142.77;1847192;75;934701;-74
2021/03/14 05:30:27;;;;;;;5.30;1.13;;;;;;;6.67;100.00;101148.91;1826303;77;934697;-73
2021/03/14 05:32:58;;;;;;;4.08;1.30;;;;;;;6.59;100.00;101156.20;1814353;77;934431;-73
2021/03/14 05:35:29;;;;;;;2.53;0.87;;;;;;;6.62;100.00;101158.48;1826561;77;934443;-73
2021/03/14 05:38:01;;;;;;;4.03;1.20;;;;;;;6.59;100.00;101167.25;1847098;76;934480;-73
2021/03/14 05:40:31;;;;;;;5.57;1.17;;;;;;;6.66;100.00;101169.31;1859363;76;934935;-73
2021/03/14 05:43:02;;;;;;;5.45;1.17;;;;;;;6.59;100.00;101168.63;1814611;77;934402;-73
2021/03/14 05:45:32;;;;;;;4.73;1.30;;;;;;;6.57;100.00;101169.44;1859109;76;934387;-73
2021/03/14 05:48:02;;;;;;;5.83;1.10;;;;;;;6.61;100.00;101176.67;1846834;76;935377;-73
2021/03/14 05:50:32;;;;;;;5.80;1.40;;;;;;;6.49;100.00;101186.41;1826474;77;934695;-73
2021/03/14 05:53:03;;;;;;;7.13;1.53;;;;;;;6.45;100.00;101187.16;1846945;76;934754;-73
2021/03/14 05:55:33;;;;;;;4.97;1.37;;;;;;;6.44;100.00;101185.48;1859145;76;934823;-74
2021/03/14 05:58:03;;;;;;;3.52;1.25;;;;;;;6.40;100.00;101197.03;1814499;77;934498;-73
2021/03/14 06:00:34;;;;;;;3.33;1.03;;;;;;;6.48;100.00;101196.31;1826272;77;934374;-74
2021/03/14 06:03:04;;;;;;;3.90;1.53;;;;;;;6.55;100.00;101200.58;1846919;76;934444;-73
2021/03/14 06:05:34;;;;;;;3.47;0.90;;;;;;;6.48;100.00;101200.45;1826260;77;934457;-73
2021/03/14 06:08:06;;;;;;;7.67;1.35;;;;;;;6.42;100.00;101215.27;1847020;76;934768;-73
2021/03/14 06:10:35;;;;;;;7.73;1.80;;;;;;;6.48;100.00;101218.39;1826348;77;934513;-73
2021/03/14 06:13:07;;;;;;;3.35;1.07;;;;;;;6.46;100.00;101226.09;1846837;76;934564;-73
2021/03/14 06:15:37;;;;;;;6.30;1.33;;;;;;;6.43;100.00;101231.55;1826259;77;932699;-73
2021/03/14 06:18:09;;;;;;;4.75;1.40;;;;;;;6.38;100.00;101235.05;1814549;77;934500;-73
2021/03/14 06:20:41;;;;;;;7.53;1.83;;;;;;;6.47;100.00;101242.92;1859283;76;932637;-74
2021/03/14 06:23:12;;;;;;;6.03;1.50;;;;;;;6.40;100.00;101248.07;1814643;77;934573;-73
2021/03/14 06:25:44;;;;;;;4.93;1.07;;;;;;;6.46;100.00;101255.88;1859231;76;932809;-73
2021/03/14 06:28:15;;;;;;;4.33;1.17;;;;;;;6.46;100.00;101252.31;1846965;76;934499;-74
2021/03/14 06:30:46;;;;;;;4.07;1.43;;;;;;;6.52;100.00;101254.90;1826478;77;932610;-73
2021/03/14 06:33:18;;;;;;;4.60;1.47;;;;;;;6.41;100.00;101257.19;1859126;76;934517;-73
2021/03/14 06:35:50;;;;;;;5.27;1.33;;;;;;;6.49;100.00;101265.06;1826270;77;932571;-73
2021/03/14 06:38:27;;;;;;;4.50;1.40;;;;;;;6.52;100.00;101270.61;1826170;77;934514;-74
2021/03/14 06:41:17;;;;;;;5.65;1.07;;;;;;;6.50;100.00;101282.47;1846842;76;934420;-73
2021/03/14 06:43:50;;;;;;;3.03;1.30;;;;;;;6.51;100.00;101282.19;1859103;76;932941;-73
2021/03/14 06:46:25;;;;;;;7.17;2.35;;;;;;;6.45;100.00;101284.58;1826029;77;934567;-73
2021/03/14 06:49:15;;;;;;;5.07;1.30;;;;;;;6.51;100.00;101286.88;1846903;76;934546;-73
2021/03/14 06:51:46;;;;;;;7.53;1.77;;;;;;;6.49;100.00;101285.77;1859091;76;932844;-73
2021/03/14 06:54:18;;;;;;;4.33;1.73;;;;;;;6.47;100.00;101293.44;1826229;77;934753;-73
2021/03/14 06:57:20;;;;;;;7.13;1.50;;;;;;;6.48;100.00;101294.27;1826462;77;932762;-74
2021/03/14 06:59:52;;;;;;;4.00;1.17;;;;;;;6.51;100.00;101307.56;1859225;76;932518;-73
2021/03/14 07:02:24;;;;;;;6.73;1.50;;;;;;;6.43;100.00;101301.91;1858982;76;934794;-73
2021/03/14 07:04:56;;;;;;;7.87;1.90;;;;;;;6.48;100.00;101313.59;1814053;77;934470;-73
2021/03/14 07:07:30;;;;;;;4.17;1.37;;;;;;;6.61;100.00;101309.98;1859108;76;934529;-73
2021/03/14 07:10:02;;;;;;;8.48;1.60;;;;;;;6.57;100.00;101324.00;1814187;77;934509;-74
2021/03/14 07:12:35;;;;;;;4.90;1.60;;;;;;;6.53;100.00;101322.81;1859069;76;934457;-73
2021/03/14 07:15:16;;;;;;;7.20;1.57;;;;;;;6.64;100.00;101337.09;1846964;76;934776;-75
2021/03/14 07:17:51;;;;;;;3.47;1.10;;;;;;;6.65;100.00;101344.83;1826272;77;932919;-75
2021/03/14 07:20:22;;;;;;;6.77;1.40;;;;;;;6.71;100.00;101339.72;1826461;77;934514;-75
2021/03/14 07:22:59;;;;;;;9.30;2.57;;;;;;;6.74;100.00;101350.25;1846902;76;934737;-75
2021/03/14 07:25:32;;;;;;;8.10;1.80;;;;;;;6.84;100.00;101373.38;1859119;76;934485;-73
2021/03/14 07:28:01;;;;;;;5.93;1.70;;;;;;;6.86;100.00;101365.67;1814580;77;934439;-74
2021/03/14 07:30:31;;;;;;;4.00;1.97;;;;;;;6.79;100.00;101369.68;1859174;76;934717;-74
2021/03/14 07:33:01;;;;;;;7.60;1.85;;;;;;;6.96;100.00;101368.33;1814566;77;934518;-74
2021/03/14 07:35:31;;;;;;;6.43;1.20;;;;;;;6.95;100.00;101368.03;1826283;77;934492;-73
2021/03/14 07:38:01;;;;;;;5.40;1.50;;;;;;;6.96;100.00;101375.23;1814232;77;934571;-73
2021/03/14 07:40:31;;;;;;;4.13;0.97;;;;;;;7.03;100.00;101375.90;1859061;76;934440;-74
2021/03/14 07:43:02;;;;;;;7.33;2.25;;;;;;;7.12;100.00;101380.78;1846976;76;934449;-73
2021/03/14 07:45:33;;;;;;;4.17;0.90;;;;;;;7.17;100.00;101391.08;1826366;77;934611;-73
2021/03/14 07:48:03;;;;;;;5.03;1.07;;;;;;;7.22;100.00;101396.70;1846922;76;934695;-74
2021/03/14 07:50:38;;;;;;;6.23;1.50;;;;;;;7.44;100.00;101400.94;1859118;76;934646;-74
2021/03/14 07:53:10;;;;;;;6.63;1.17;;;;;;;7.51;100.00;101396.07;1814169;77;934513;-73
2021/03/14 07:55:43;;;;;;;6.07;2.43;;;;;;;7.70;100.00;101403.03;1859010;76;932914;-74
2021/03/14 07:58:14;;;;;;;4.13;1.10;;;;;;;7.89;100.00;101392.52;1814091;77;934411;-74
2021/03/14 08:00:46;;;;;;;6.40;1.30;;;;;;;8.01;100.00;101385.78;1859007;73;932538;-73
2021/03/14 08:03:15;;;;;;;5.57;1.40;;;;;;;8.09;100.00;101391.41;1814439;77;934563;-73
2021/03/14 08:05:51;;;;;;;3.73;1.20;;;;;;;8.11;100.00;101390.63;1859167;76;932617;-73
2021/03/14 08:08:46;;;;;;;4.47;1.03;;;;;;;8.09;100.00;101392.25;1826326;77;934583;-73
2021/03/14 08:11:27;;;;;;;2.17;1.30;;;;;;;8.08;100.00;101388.38;1846947;76;934548;-74
2021/03/14 08:13:57;;;;;;;6.33;1.70;;;;;;;8.16;100.00;101385.16;1814234;77;934491;-74
2021/03/14 08:16:27;;;;;;;8.07;1.70;;;;;;;8.24;100.00;101395.24;1859077;76;934534;-74
2021/03/14 08:18:57;;;;;;;5.60;1.15;;;;;;;8.28;100.00;101382.27;1846824;76;934510;-74
2021/03/14 08:21:41;;;;;;;3.50;1.17;;;;;;;8.17;100.00;101387.66;1826232;77;934451;-74
2021/03/14 08:24:14;;;;;;;5.77;1.20;;;;;;;8.23;100.00;101389.95;1846731;76;934463;-74
2021/03/14 08:26:44;;;;;;;7.07;1.20;;;;;;;8.23;100.00;101392.17;1859083;76;932690;-74
2021/03/14 08:29:15;;;;;;;7.53;1.60;;;;;;;8.23;100.00;101392.17;1814335;77;934520;-74
2021/03/14 08:31:47;;;;;;;5.80;1.30;;;;;;;8.28;100.00;101398.88;1859037;76;932821;-74
2021/03/14 08:34:21;;;;;;;5.10;1.20;;;;;;;8.22;100.00;101404.33;1859129;76;934549;-74
2021/03/14 08:36:53;;;;;;;4.37;1.27;;;;;;;8.20;100.00;101399.62;1824953;77;934576;-75
2021/03/14 08:39:25;;;;;;;4.23;0.93;;;;;;;8.18;100.00;101402.33;1843001;77;934517;-73
2021/03/14 08:41:58;;;;;;;5.33;1.23;;;;;;;8.22;100.00;101405.72;1847053;75;934468;-73
2021/03/14 08:44:37;;;;;;;4.10;1.30;;;;;;;8.15;100.00;101418.07;1858863;76;934440;-73
2021/03/14 08:47:09;;;;;;;5.78;1.27;;;;;;;8.08;100.00;101428.49;1814391;77;934564;-73
2021/03/14 08:49:42;;;;;;;3.50;1.17;;;;;;;8.07;100.00;101439.27;1859109;76;932588;-73
2021/03/14 08:52:13;;;;;;;2.83;1.23;;;;;;;8.22;100.00;101449.99;1814441;77;934733;-74
2021/03/14 08:54:45;;;;;;;4.10;1.17;;;;;;;8.53;100.00;101447.67;1859240;76;932749;-72
2021/03/14 08:57:17;;;;;;;5.17;1.30;;;;;;;8.75;100.00;101451.28;1814303;77;934492;-73
2021/03/14 08:59:49;;;;;;;4.37;1.10;;;;;;;8.89;100.00;101462.27;1859112;76;932693;-73
2021/03/14 09:02:24;;;;;;;5.73;1.30;;;;;;;9.05;100.00;101455.80;1858900;73;934622;-74
2021/03/14 09:04:55;;;;;;;6.33;1.20;;;;;;;9.17;100.00;101457.56;1814313;77;934744;-75
2021/03/14 09:07:26;;;;;;;4.90;1.27;;;;;;;9.31;100.00;101454.67;1859222;76;934718;-74
2021/03/14 09:09:55;;;;;;;5.90;1.60;;;;;;;9.38;100.00;101456.67;1846873;76;934476;-75
2021/03/14 09:12:25;;;;;;;1.23;0.60;;;;;;;9.41;100.00;101444.50;1826325;77;934410;-74
2021/03/14 09:14:55;;;;;;;3.47;0.83;;;;;;;9.51;100.00;101446.54;1846799;76;934457;-75
2021/03/14 09:17:25;;;;;;;5.23;1.10;;;;;;;9.65;100.00;101447.78;1859111;76;934649;-75
2021/03/14 09:19:57;;;;;;;5.93;1.10;;;;;;;9.57;100.00;101455.20;1814298;77;934499;-75
2021/03/14 09:22:29;;;;;;;4.50;1.00;;;;;;;9.53;100.00;101452.67;1859198;76;934511;-74
2021/03/14 09:25:00;;;;;;;2.58;0.95;;;;;;;9.52;100.00;101445.45;1846899;76;934500;-75
2021/03/14 09:27:32;;;;;;;7.60;1.17;;;;;;;9.57;100.00;101454.66;1826288;77;933713;-75
2021/03/14 09:30:08;;;;;;;4.90;1.20;;;;;;;9.64;100.00;101464.68;1847092;76;934623;-74
2021/03/14 09:32:41;;;;;;;4.37;1.10;;;;;;;9.70;100.00;101464.47;1826430;77;932781;-74
2021/03/14 09:35:20;;;;;;;3.37;1.00;;;;;;;9.91;100.00;101475.19;1846974;76;934576;-73
2021/03/14 09:37:52;;;;;;;6.40;1.40;;;;;;;9.85;100.00;101480.39;1858993;76;932666;-73
2021/03/14 09:40:29;;;;;;;2.90;1.10;;;;;;;9.95;100.00;101480.48;1826288;77;934482;-73
2021/03/14 09:43:20;;;;;;;4.40;1.40;;;;;;;9.95;100.00;101479.94;1846956;76;934734;-74
2021/03/14 09:45:52;;;;;;;4.40;1.00;;;;;;;9.97;100.00;101486.04;1826319;77;932551;-73
2021/03/14 09:48:24;;;;;;;4.00;1.00;;;;;;;10.09;100.00;101494.75;1859024;76;934706;-73
2021/03/14 09:50:56;;;;;;;5.80;1.23;;;;;;;9.95;100.00;101488.81;1814069;77;936475;-74
2021/03/14 09:53:28;;;;;;;3.20;1.10;;;;;;;10.26;100.00;101495.46;1859255;76;934521;-73
2021/03/14 09:56:00;;;;;;;7.83;1.40;;;;;;;10.31;100.00;101499.67;1814243;77;936565;-73
2021/03/14 09:58:31;;;;;;;4.07;1.10;;;;;;;10.20;100.00;101490.41;1826320;77;936629;-73
2021/03/14 10:01:02;;;;;;;2.87;0.80;;;;;;;10.35;100.00;101504.42;1846784;76;936694;-73
2021/03/14 10:03:34;;;;;;;1.90;0.80;;;;;;;10.29;100.00;101505.48;1858886;73;936609;-73
2021/03/14 10:06:05;;;;;;;2.02;0.93;;;;;;;10.35;100.00;101513.30;1814353;77;936560;-74
2021/03/14 10:08:37;;;;;;;1.97;0.80;;;;;;;10.49;100.00;101508.92;1859216;76;936623;-73
2021/03/14 10:11:11;;;;;;;2.53;0.70;;;;;;;10.60;100.00;101516.78;1847028;76;936837;-74
2021/03/14 10:13:43;;;;;;;2.73;0.80;;;;;;;10.46;100.00;101511.70;1826617;77;934819;-74
2021/03/14 10:16:16;;;;;;;3.93;1.00;;;;;;;10.47;100.00;101523.64;1814513;77;936627;-74
2021/03/14 10:18:46;;;;;;;3.60;1.02;;;;;;;10.43;100.00;101518.34;1859084;76;934755;-73
2021/03/14 10:21:20;;;;;;;2.83;0.77;;;;;;;10.43;100.00;101517.80;1859236;76;936602;-73
2021/03/14 10:23:50;;;;;;;4.30;0.87;;;;;;;10.55;100.00;101517.58;1826271;77;934800;-73
2021/03/14 10:26:20;;;;;;;3.17;0.87;;;;;;;10.63;100.00;101514.84;1859197;76;936681;-74
2021/03/14 10:28:50;;;;;;;4.33;1.33;;;;;;;10.76;100.00;101521.30;1826350;77;934716;-74
2021/03/14 10:31:21;;;;;;;2.20;0.87;;;;;;;10.99;100.00;101531.15;1826334;77;936557;-73
2021/03/14 10:33:52;;;;;;;4.70;1.20;;;;;;;10.83;100.00;101529.67;1853556;76;936618;-75
2021/03/14 10:36:22;;;;;;;3.30;0.70;;;;;;;10.90;100.00;101535.00;1852291;75;935460;-73
2021/03/14 10:38:53;;;;;;;5.05;0.80;;;;;;;10.94;100.00;101543.92;1849568;76;935751;-75
2021/03/14 10:41:24;;;;;;;3.73;1.20;;;;;;;10.97;100.00;101535.58;1885792;74;936505;-73
2021/03/14 10:43:56;;;;;;;3.90;0.90;;;;;;;10.86;100.00;101525.53;1885439;74;936605;-74
2021/03/14 10:46:37;;;;;;;3.73;1.33;;;;;;;11.05;100.00;101537.84;1826258;77;936534;-73
2021/03/14 10:49:09;;;;;;;2.43;0.90;;;;;;;11.04;100.00;101529.78;1847129;76;936785;-73
2021/03/14 10:51:41;;;;;;;3.53;0.80;;;;;;;11.11;100.00;101523.41;1826474;77;934770;-73
2021/03/14 10:54:13;;;;;;;4.47;0.70;;;;;;;11.08;100.00;101528.94;1847143;76;936712;-73
2021/03/14 10:56:45;;;;;;;4.20;1.10;;;;;;;11.15;100.00;101530.94;1826551;77;934844;-74
2021/03/14 10:59:26;;;;;;;3.50;1.10;;;;;;;11.16;100.00;101540.12;1847013;76;936647;-73
2021/03/14 11:02:00;;;;;;;2.80;0.90;;;;;;;11.16;100.00;101540.12;1814124;77;936680;-74
2021/03/14 11:04:33;;;;;;;4.10;1.17;;;;;;;11.23;100.00;101538.75;1856981;73;936786;-73
2021/03/14 11:07:04;;;;;;;4.40;0.93;;;;;;;11.22;100.00;101550.13;1814416;77;936524;-74
2021/03/14 11:09:34;;;;;;;3.17;0.80;;;;;;;11.22;100.00;101559.31;1856075;76;935823;-73
2021/03/14 11:12:05;;;;;;;3.60;1.07;;;;;;;11.08;100.00;101553.96;1814343;77;936705;-74
2021/03/14 11:14:38;;;;;;;2.57;0.83;;;;;;;11.04;100.00;101550.05;1859086;76;936534;-74
2021/03/14 11:17:13;;;;;;;3.20;0.83;;;;;;;11.05;100.00;101553.13;1846838;76;936655;-74
2021/03/14 11:19:45;;;;;;;2.87;0.80;;;;;;;11.08;100.00;101553.16;1826305;77;934870;-74
2021/03/14 11:22:17;;;;;;;6.20;0.90;;;;;;;11.10;100.00;101558.72;1846951;76;936710;-73
2021/03/14 11:24:48;;;;;;;4.53;1.00;;;;;;;11.19;100.00;101559.87;1826402;77;934416;-73
2021/03/14 11:27:19;;;;;;;3.17;0.90;;;;;;;11.19;100.00;101574.33;1859106;76;936569;-74
2021/03/14 11:29:49;;;;;;;3.90;1.07;;;;;;;11.30;100.00;101577.41;1859216;76;934696;-73
2021/03/14 11:32:19;;;;;;;3.93;0.90;;;;;;;11.36;100.00;101579.96;1826260;77;936617;-74
2021/03/14 11:34:49;;;;;;;3.20;1.00;;;;;;;11.34;100.00;101576.59;1859195;76;934706;-73
2021/03/14 11:37:19;;;;;;;2.93;0.70;;;;;;;11.30;100.00;101589.37;1826374;77;936669;-74